sensor_id;sensor_type;location;lat;lon;timestamp;P1;durP1;ratioP1;P2;durP2;ratioP2
52764;SDS011;38650;44.536;18.664;2023-03-31T00:02:19;7.60;;;4.78;;
52764;SDS011;38650;44.536;18.664;2023-03-31T00:04:47;5.00;;;3.95;;
52764;SDS011;38650;44.536;18.664;2023-03-31T00:07:24;5.03;;;3.92;;
52764;SDS011;38650;44.536;18.664;2023-03-31T00:09:50;4.82;;;3.88;;
52764;SDS011;38650;44.536;18.664;2023-03-31T00:12:19;5.05;;;3.40;;
52764;SDS011;38650;44.536;18.664;2023-03-31T00:14:45;4.13;;;3.72;;
52764;SDS011;38650;44.536;18.664;2023-03-31T00:17:11;5.18;;;4.30;;
52764;SDS011;38650;44.536;18.664;2023-03-31T00:19:38;5.78;;;4.25;;
52764;SDS011;38650;44.536;18.664;2023-03-31T00:22:04;7.63;;;4.45;;
52764;SDS011;38650;44.536;18.664;2023-03-31T00:24:30;6.65;;;5.30;;
52764;SDS011;38650;44.536;18.664;2023-03-31T00:26:57;9.95;;;6.75;;
52764;SDS011;38650;44.536;18.664;2023-03-31T00:29:26;5.28;;;4.75;;
52764;SDS011;38650;44.536;18.664;2023-03-31T00:31:52;8.05;;;5.60;;
52764;SDS011;38650;44.536;18.664;2023-03-31T00:34:19;6.72;;;4.68;;
52764;SDS011;38650;44.536;18.664;2023-03-31T00:36:45;6.38;;;4.82;;
52764;SDS011;38650;44.536;18.664;2023-03-31T00:39:11;7.68;;;6.78;;
52764;SDS011;38650;44.536;18.664;2023-03-31T00:41:39;9.35;;;6.72;;
52764;SDS011;38650;44.536;18.664;2023-03-31T00:44:19;6.50;;;5.80;;
52764;SDS011;38650;44.536;18.664;2023-03-31T00:49:30;6.40;;;5.57;;
52764;SDS011;38650;44.536;18.664;2023-03-31T00:52:00;5.53;;;4.55;;
52764;SDS011;38650;44.536;18.664;2023-03-31T00:54:47;5.82;;;4.50;;
52764;SDS011;38650;44.536;18.664;2023-03-31T00:57:17;4.90;;;3.50;;
52764;SDS011;38650;44.536;18.664;2023-03-31T00:59:48;6.40;;;5.25;;
52764;SDS011;38650;44.536;18.664;2023-03-31T01:02:16;8.75;;;6.90;;
52764;SDS011;38650;44.536;18.664;2023-03-31T01:04:45;6.32;;;5.00;;
52764;SDS011;38650;44.536;18.664;2023-03-31T01:09:49;4.72;;;3.95;;
52764;SDS011;38650;44.536;18.664;2023-03-31T01:12:20;5.97;;;3.88;;
52764;SDS011;38650;44.536;18.664;2023-03-31T01:14:48;4.75;;;4.10;;
52764;SDS011;38650;44.536;18.664;2023-03-31T01:17:15;5.38;;;4.18;;
52764;SDS011;38650;44.536;18.664;2023-03-31T01:36:09;7.82;;;3.55;;
52764;SDS011;38650;44.536;18.664;2023-03-31T01:47:36;11.70;;;4.93;;
52764;SDS011;38650;44.536;18.664;2023-03-31T01:50:22;6.70;;;4.70;;
52764;SDS011;38650;44.536;18.664;2023-03-31T01:55:39;7.78;;;4.13;;
52764;SDS011;38650;44.536;18.664;2023-03-31T02:00:49;5.35;;;3.70;;
52764;SDS011;38650;44.536;18.664;2023-03-31T02:03:27;5.35;;;3.28;;
52764;SDS011;38650;44.536;18.664;2023-03-31T02:05:59;7.75;;;3.80;;
52764;SDS011;38650;44.536;18.664;2023-03-31T02:08:49;5.43;;;3.50;;
52764;SDS011;38650;44.536;18.664;2023-03-31T02:11:19;5.57;;;3.72;;
52764;SDS011;38650;44.536;18.664;2023-03-31T02:13:46;4.93;;;3.65;;
52764;SDS011;38650;44.536;18.664;2023-03-31T02:16:15;5.97;;;4.28;;
52764;SDS011;38650;44.536;18.664;2023-03-31T02:18:48;8.57;;;4.35;;
52764;SDS011;38650;44.536;18.664;2023-03-31T02:21:18;5.40;;;4.20;;
52764;SDS011;38650;44.536;18.664;2023-03-31T02:23:46;5.18;;;3.78;;
52764;SDS011;38650;44.536;18.664;2023-03-31T02:26:17;8.02;;;4.85;;
52764;SDS011;38650;44.536;18.664;2023-03-31T02:28:47;9.60;;;5.20;;
52764;SDS011;38650;44.536;18.664;2023-03-31T02:34:00;5.15;;;3.95;;
52764;SDS011;38650;44.536;18.664;2023-03-31T02:36:27;5.00;;;3.33;;
52764;SDS011;38650;44.536;18.664;2023-03-31T02:38:54;5.40;;;4.30;;
52764;SDS011;38650;44.536;18.664;2023-03-31T02:41:27;6.97;;;4.97;;
52764;SDS011;38650;44.536;18.664;2023-03-31T02:43:53;6.68;;;4.55;;
52764;SDS011;38650;44.536;18.664;2023-03-31T02:46:19;5.40;;;3.50;;
52764;SDS011;38650;44.536;18.664;2023-03-31T02:48:46;5.68;;;3.65;;
52764;SDS011;38650;44.536;18.664;2023-03-31T03:02:14;6.07;;;3.90;;
52764;SDS011;38650;44.536;18.664;2023-03-31T03:08:20;19.40;;;15.95;;
52764;SDS011;38650;44.536;18.664;2023-03-31T03:11:12;19.75;;;16.38;;
52764;SDS011;38650;44.536;18.664;2023-03-31T03:17:01;20.17;;;18.08;;
52764;SDS011;38650;44.536;18.664;2023-03-31T03:19:28;14.40;;;12.90;;
52764;SDS011;38650;44.536;18.664;2023-03-31T03:21:53;14.20;;;10.02;;
52764;SDS011;38650;44.536;18.664;2023-03-31T03:24:20;10.70;;;8.10;;
52764;SDS011;38650;44.536;18.664;2023-03-31T03:26:46;10.35;;;8.20;;
52764;SDS011;38650;44.536;18.664;2023-03-31T03:29:12;12.93;;;8.13;;
52764;SDS011;38650;44.536;18.664;2023-03-31T03:31:39;9.93;;;7.75;;
52764;SDS011;38650;44.536;18.664;2023-03-31T03:34:05;10.23;;;8.10;;
52764;SDS011;38650;44.536;18.664;2023-03-31T03:36:33;12.98;;;9.60;;
52764;SDS011;38650;44.536;18.664;2023-03-31T03:39:00;10.73;;;8.07;;
52764;SDS011;38650;44.536;18.664;2023-03-31T03:41:26;13.75;;;8.45;;
52764;SDS011;38650;44.536;18.664;2023-03-31T03:43:51;21.80;;;14.32;;
52764;SDS011;38650;44.536;18.664;2023-03-31T03:46:17;23.23;;;15.25;;
52764;SDS011;38650;44.536;18.664;2023-03-31T03:48:43;17.23;;;13.20;;
52764;SDS011;38650;44.536;18.664;2023-03-31T03:51:08;15.68;;;11.80;;
52764;SDS011;38650;44.536;18.664;2023-03-31T03:53:34;16.13;;;11.98;;
52764;SDS011;38650;44.536;18.664;2023-03-31T03:56:00;12.82;;;9.95;;
52764;SDS011;38650;44.536;18.664;2023-03-31T03:58:26;18.05;;;10.68;;
52764;SDS011;38650;44.536;18.664;2023-03-31T04:00:52;15.30;;;9.48;;
52764;SDS011;38650;44.536;18.664;2023-03-31T04:03:18;21.83;;;15.52;;
52764;SDS011;38650;44.536;18.664;2023-03-31T04:05:43;26.77;;;20.83;;
52764;SDS011;38650;44.536;18.664;2023-03-31T04:08:13;25.15;;;21.25;;
52764;SDS011;38650;44.536;18.664;2023-03-31T04:10:42;23.90;;;19.80;;
52764;SDS011;38650;44.536;18.664;2023-03-31T04:15:42;23.25;;;19.13;;
52764;SDS011;38650;44.536;18.664;2023-03-31T04:18:08;22.70;;;18.58;;
52764;SDS011;38650;44.536;18.664;2023-03-31T04:20:47;24.92;;;21.10;;
52764;SDS011;38650;44.536;18.664;2023-03-31T04:23:28;33.72;;;28.73;;
52764;SDS011;38650;44.536;18.664;2023-03-31T04:25:58;28.50;;;25.40;;
52764;SDS011;38650;44.536;18.664;2023-03-31T04:28:25;25.08;;;21.38;;
52764;SDS011;38650;44.536;18.664;2023-03-31T04:30:54;19.67;;;17.58;;
52764;SDS011;38650;44.536;18.664;2023-03-31T04:33:22;20.45;;;17.00;;
52764;SDS011;38650;44.536;18.664;2023-03-31T04:35:48;20.02;;;17.35;;
52764;SDS011;38650;44.536;18.664;2023-03-31T04:38:17;23.98;;;17.10;;
52764;SDS011;38650;44.536;18.664;2023-03-31T04:40:45;26.67;;;17.15;;
52764;SDS011;38650;44.536;18.664;2023-03-31T04:43:12;20.65;;;14.80;;
52764;SDS011;38650;44.536;18.664;2023-03-31T04:45:38;15.95;;;12.55;;
52764;SDS011;38650;44.536;18.664;2023-03-31T04:48:04;15.18;;;11.00;;
52764;SDS011;38650;44.536;18.664;2023-03-31T04:50:30;13.15;;;9.10;;
52764;SDS011;38650;44.536;18.664;2023-03-31T04:52:56;13.02;;;10.32;;
52764;SDS011;38650;44.536;18.664;2023-03-31T04:55:22;13.15;;;10.80;;
52764;SDS011;38650;44.536;18.664;2023-03-31T04:57:48;18.25;;;13.05;;
52764;SDS011;38650;44.536;18.664;2023-03-31T05:00:14;22.15;;;15.07;;
52764;SDS011;38650;44.536;18.664;2023-03-31T05:02:40;42.72;;;28.75;;
52764;SDS011;38650;44.536;18.664;2023-03-31T05:05:06;55.15;;;37.80;;
52764;SDS011;38650;44.536;18.664;2023-03-31T05:07:31;44.40;;;32.80;;
52764;SDS011;38650;44.536;18.664;2023-03-31T05:09:57;46.47;;;31.67;;
52764;SDS011;38650;44.536;18.664;2023-03-31T05:12:23;44.78;;;30.48;;
52764;SDS011;38650;44.536;18.664;2023-03-31T05:14:49;42.75;;;27.67;;
52764;SDS011;38650;44.536;18.664;2023-03-31T05:17:15;36.25;;;24.50;;
52764;SDS011;38650;44.536;18.664;2023-03-31T05:19:42;32.17;;;21.75;;
52764;SDS011;38650;44.536;18.664;2023-03-31T05:22:08;38.67;;;23.33;;
52764;SDS011;38650;44.536;18.664;2023-03-31T05:24:34;33.53;;;25.80;;
52764;SDS011;38650;44.536;18.664;2023-03-31T05:26:59;26.77;;;19.88;;
52764;SDS011;38650;44.536;18.664;2023-03-31T05:29:25;21.60;;;14.80;;
52764;SDS011;38650;44.536;18.664;2023-03-31T05:31:51;19.52;;;13.93;;
52764;SDS011;38650;44.536;18.664;2023-03-31T05:37:30;15.27;;;9.70;;
52764;SDS011;38650;44.536;18.664;2023-03-31T05:39:55;11.98;;;8.57;;
52764;SDS011;38650;44.536;18.664;2023-03-31T05:42:21;11.32;;;7.68;;
52764;SDS011;38650;44.536;18.664;2023-03-31T05:44:47;9.93;;;7.57;;
52764;SDS011;38650;44.536;18.664;2023-03-31T05:47:13;9.32;;;7.55;;
52764;SDS011;38650;44.536;18.664;2023-03-31T05:49:39;9.38;;;6.40;;
52764;SDS011;38650;44.536;18.664;2023-03-31T05:52:06;8.13;;;6.78;;
52764;SDS011;38650;44.536;18.664;2023-03-31T05:54:32;9.55;;;6.00;;
52764;SDS011;38650;44.536;18.664;2023-03-31T05:56:58;10.02;;;5.43;;
52764;SDS011;38650;44.536;18.664;2023-03-31T05:59:24;10.80;;;6.10;;
52764;SDS011;38650;44.536;18.664;2023-03-31T06:01:50;7.65;;;5.60;;
52764;SDS011;38650;44.536;18.664;2023-03-31T06:04:16;8.55;;;5.78;;
52764;SDS011;38650;44.536;18.664;2023-03-31T06:06:42;7.95;;;5.97;;
52764;SDS011;38650;44.536;18.664;2023-03-31T06:09:08;8.15;;;7.15;;
52764;SDS011;38650;44.536;18.664;2023-03-31T06:11:38;11.48;;;7.03;;
52764;SDS011;38650;44.536;18.664;2023-03-31T06:14:04;8.93;;;6.70;;
52764;SDS011;38650;44.536;18.664;2023-03-31T06:16:29;10.48;;;8.05;;
52764;SDS011;38650;44.536;18.664;2023-03-31T06:18:55;9.35;;;7.05;;
52764;SDS011;38650;44.536;18.664;2023-03-31T06:21:21;8.30;;;7.38;;
52764;SDS011;38650;44.536;18.664;2023-03-31T06:23:47;8.88;;;7.75;;
52764;SDS011;38650;44.536;18.664;2023-03-31T06:26:14;8.45;;;7.22;;
52764;SDS011;38650;44.536;18.664;2023-03-31T06:28:42;8.63;;;6.93;;
52764;SDS011;38650;44.536;18.664;2023-03-31T06:31:09;7.50;;;6.57;;
52764;SDS011;38650;44.536;18.664;2023-03-31T06:33:41;8.02;;;6.63;;
52764;SDS011;38650;44.536;18.664;2023-03-31T06:36:08;7.07;;;5.43;;
52764;SDS011;38650;44.536;18.664;2023-03-31T06:38:36;5.90;;;5.18;;
52764;SDS011;38650;44.536;18.664;2023-03-31T06:41:03;6.20;;;5.60;;
52764;SDS011;38650;44.536;18.664;2023-03-31T06:43:30;6.85;;;5.35;;
52764;SDS011;38650;44.536;18.664;2023-03-31T06:45:56;7.25;;;6.55;;
52764;SDS011;38650;44.536;18.664;2023-03-31T06:48:22;8.05;;;6.38;;
52764;SDS011;38650;44.536;18.664;2023-03-31T06:50:49;11.05;;;7.20;;
52764;SDS011;38650;44.536;18.664;2023-03-31T06:53:15;7.32;;;6.40;;
52764;SDS011;38650;44.536;18.664;2023-03-31T06:55:41;8.10;;;6.97;;
52764;SDS011;38650;44.536;18.664;2023-03-31T06:58:07;7.28;;;6.57;;
52764;SDS011;38650;44.536;18.664;2023-03-31T07:00:32;7.65;;;6.78;;
52764;SDS011;38650;44.536;18.664;2023-03-31T07:02:58;8.48;;;7.00;;
52764;SDS011;38650;44.536;18.664;2023-03-31T07:05:27;7.15;;;6.45;;
52764;SDS011;38650;44.536;18.664;2023-03-31T07:07:54;7.78;;;6.93;;
52764;SDS011;38650;44.536;18.664;2023-03-31T07:10:22;8.07;;;7.28;;
52764;SDS011;38650;44.536;18.664;2023-03-31T07:12:48;7.13;;;6.43;;
52764;SDS011;38650;44.536;18.664;2023-03-31T07:15:15;6.75;;;6.07;;
52764;SDS011;38650;44.536;18.664;2023-03-31T07:17:41;7.50;;;6.78;;
52764;SDS011;38650;44.536;18.664;2023-03-31T07:20:12;7.00;;;6.30;;
52764;SDS011;38650;44.536;18.664;2023-03-31T07:22:43;7.70;;;6.20;;
52764;SDS011;38650;44.536;18.664;2023-03-31T07:25:12;7.10;;;6.40;;
52764;SDS011;38650;44.536;18.664;2023-03-31T07:27:39;6.32;;;5.72;;
52764;SDS011;38650;44.536;18.664;2023-03-31T07:30:06;6.22;;;5.63;;
52764;SDS011;38650;44.536;18.664;2023-03-31T07:32:33;6.10;;;5.45;;
52764;SDS011;38650;44.536;18.664;2023-03-31T07:35:03;5.75;;;4.78;;
52764;SDS011;38650;44.536;18.664;2023-03-31T07:37:41;4.80;;;4.40;;
52764;SDS011;38650;44.536;18.664;2023-03-31T07:40:10;4.78;;;4.35;;
52764;SDS011;38650;44.536;18.664;2023-03-31T07:42:40;3.70;;;3.40;;
52764;SDS011;38650;44.536;18.664;2023-03-31T07:45:06;4.10;;;3.63;;
52764;SDS011;38650;44.536;18.664;2023-03-31T07:47:33;4.38;;;3.63;;
52764;SDS011;38650;44.536;18.664;2023-03-31T07:49:59;3.53;;;3.22;;
52764;SDS011;38650;44.536;18.664;2023-03-31T07:52:25;4.18;;;3.05;;
52764;SDS011;38650;44.536;18.664;2023-03-31T07:54:51;3.22;;;2.80;;
52764;SDS011;38650;44.536;18.664;2023-03-31T07:57:17;3.58;;;2.85;;
52764;SDS011;38650;44.536;18.664;2023-03-31T07:59:43;4.00;;;3.60;;
52764;SDS011;38650;44.536;18.664;2023-03-31T08:02:12;4.22;;;3.30;;
52764;SDS011;38650;44.536;18.664;2023-03-31T08:04:40;5.70;;;5.10;;
52764;SDS011;38650;44.536;18.664;2023-03-31T08:07:10;4.03;;;3.63;;
52764;SDS011;38650;44.536;18.664;2023-03-31T08:09:37;3.78;;;3.22;;
52764;SDS011;38650;44.536;18.664;2023-03-31T08:12:03;4.70;;;3.20;;
52764;SDS011;38650;44.536;18.664;2023-03-31T08:14:29;3.40;;;2.92;;
52764;SDS011;38650;44.536;18.664;2023-03-31T08:16:55;2.30;;;1.75;;
52764;SDS011;38650;44.536;18.664;2023-03-31T08:19:22;3.80;;;1.58;;
52764;SDS011;38650;44.536;18.664;2023-03-31T08:21:49;3.35;;;1.50;;
52764;SDS011;38650;44.536;18.664;2023-03-31T08:24:16;1.90;;;1.42;;
52764;SDS011;38650;44.536;18.664;2023-03-31T08:26:42;1.88;;;1.50;;
52764;SDS011;38650;44.536;18.664;2023-03-31T08:29:08;1.83;;;1.20;;
52764;SDS011;38650;44.536;18.664;2023-03-31T08:31:34;1.88;;;1.15;;
52764;SDS011;38650;44.536;18.664;2023-03-31T08:34:00;1.95;;;1.17;;
52764;SDS011;38650;44.536;18.664;2023-03-31T08:36:27;4.10;;;1.80;;
52764;SDS011;38650;44.536;18.664;2023-03-31T08:38:53;2.50;;;1.80;;
52764;SDS011;38650;44.536;18.664;2023-03-31T08:43:52;2.03;;;1.50;;
52764;SDS011;38650;44.536;18.664;2023-03-31T08:46:21;1.90;;;0.90;;
52764;SDS011;38650;44.536;18.664;2023-03-31T08:48:48;2.92;;;0.80;;
52764;SDS011;38650;44.536;18.664;2023-03-31T08:51:23;1.13;;;0.82;;
52764;SDS011;38650;44.536;18.664;2023-03-31T08:54:03;1.05;;;0.65;;
52764;SDS011;38650;44.536;18.664;2023-03-31T08:56:35;2.03;;;0.80;;
52764;SDS011;38650;44.536;18.664;2023-03-31T08:59:04;2.83;;;0.90;;
52764;SDS011;38650;44.536;18.664;2023-03-31T09:01:41;1.40;;;0.80;;
52764;SDS011;38650;44.536;18.664;2023-03-31T09:04:28;2.28;;;0.90;;
52764;SDS011;38650;44.536;18.664;2023-03-31T09:07:12;0.98;;;0.80;;
52764;SDS011;38650;44.536;18.664;2023-03-31T09:12:52;2.72;;;0.90;;
52764;SDS011;38650;44.536;18.664;2023-03-31T09:15:39;2.95;;;0.80;;
52764;SDS011;38650;44.536;18.664;2023-03-31T09:18:15;1.73;;;0.90;;
52764;SDS011;38650;44.536;18.664;2023-03-31T09:21:06;1.67;;;0.88;;
52764;SDS011;38650;44.536;18.664;2023-03-31T09:23:43;3.50;;;1.15;;
52764;SDS011;38650;44.536;18.664;2023-03-31T09:26:23;2.47;;;0.90;;
52764;SDS011;38650;44.536;18.664;2023-03-31T09:29:01;2.97;;;2.38;;
52764;SDS011;38650;44.536;18.664;2023-03-31T09:31:34;3.47;;;2.42;;
52764;SDS011;38650;44.536;18.664;2023-03-31T09:34:08;4.20;;;1.85;;
52764;SDS011;38650;44.536;18.664;2023-03-31T09:36:39;2.08;;;1.23;;
52764;SDS011;38650;44.536;18.664;2023-03-31T09:39:07;1.48;;;1.00;;
52764;SDS011;38650;44.536;18.664;2023-03-31T09:41:37;1.58;;;1.10;;
52764;SDS011;38650;44.536;18.664;2023-03-31T09:44:08;2.28;;;0.80;;
52764;SDS011;38650;44.536;18.664;2023-03-31T09:46:48;0.95;;;0.63;;
52764;SDS011;38650;44.536;18.664;2023-03-31T09:49:16;1.20;;;0.80;;
52764;SDS011;38650;44.536;18.664;2023-03-31T09:51:45;1.05;;;0.60;;
52764;SDS011;38650;44.536;18.664;2023-03-31T09:54:21;1.52;;;0.73;;
52764;SDS011;38650;44.536;18.664;2023-03-31T09:56:54;1.08;;;0.77;;
52764;SDS011;38650;44.536;18.664;2023-03-31T09:59:21;0.60;;;0.50;;
52764;SDS011;38650;44.536;18.664;2023-03-31T10:01:50;1.08;;;0.85;;
52764;SDS011;38650;44.536;18.664;2023-03-31T10:04:24;1.40;;;1.10;;
52764;SDS011;38650;44.536;18.664;2023-03-31T10:06:53;0.93;;;0.70;;
52764;SDS011;38650;44.536;18.664;2023-03-31T10:09:25;1.67;;;0.70;;
52764;SDS011;38650;44.536;18.664;2023-03-31T10:12:03;1.95;;;0.77;;
52764;SDS011;38650;44.536;18.664;2023-03-31T10:14:37;0.95;;;0.50;;
52764;SDS011;38650;44.536;18.664;2023-03-31T10:17:05;2.42;;;0.70;;
52764;SDS011;38650;44.536;18.664;2023-03-31T10:19:35;1.83;;;0.60;;
52764;SDS011;38650;44.536;18.664;2023-03-31T10:24:46;1.10;;;0.70;;
52764;SDS011;38650;44.536;18.664;2023-03-31T10:29:53;1.83;;;1.10;;
52764;SDS011;38650;44.536;18.664;2023-03-31T10:32:25;1.20;;;0.70;;
52764;SDS011;38650;44.536;18.664;2023-03-31T10:34:53;0.98;;;0.60;;
52764;SDS011;38650;44.536;18.664;2023-03-31T10:37:55;1.60;;;0.80;;
52764;SDS011;38650;44.536;18.664;2023-03-31T10:40:24;1.17;;;0.60;;
52764;SDS011;38650;44.536;18.664;2023-03-31T10:43:00;1.67;;;0.63;;
52764;SDS011;38650;44.536;18.664;2023-03-31T10:45:29;1.10;;;0.70;;
52764;SDS011;38650;44.536;18.664;2023-03-31T10:48:00;1.08;;;0.57;;
52764;SDS011;38650;44.536;18.664;2023-03-31T10:53:48;0.95;;;0.70;;
52764;SDS011;38650;44.536;18.664;2023-03-31T11:05:56;1.35;;;0.70;;
52764;SDS011;38650;44.536;18.664;2023-03-31T11:09:15;0.75;;;0.68;;
52764;SDS011;38650;44.536;18.664;2023-03-31T11:14:24;1.30;;;0.70;;
52764;SDS011;38650;44.536;18.664;2023-03-31T11:20:18;0.60;;;0.50;;
52764;SDS011;38650;44.536;18.664;2023-03-31T11:25:51;1.10;;;0.85;;
52764;SDS011;38650;44.536;18.664;2023-03-31T11:28:34;2.78;;;0.88;;
52764;SDS011;38650;44.536;18.664;2023-03-31T11:31:11;1.25;;;0.88;;
52764;SDS011;38650;44.536;18.664;2023-03-31T11:39:21;2.25;;;0.95;;
52764;SDS011;38650;44.536;18.664;2023-03-31T11:41:52;3.60;;;0.75;;
52764;SDS011;38650;44.536;18.664;2023-03-31T11:44:22;1.08;;;0.80;;
52764;SDS011;38650;44.536;18.664;2023-03-31T11:47:05;1.67;;;1.13;;
52764;SDS011;38650;44.536;18.664;2023-03-31T11:49:40;2.33;;;1.08;;
52764;SDS011;38650;44.536;18.664;2023-03-31T11:52:14;1.88;;;0.80;;
52764;SDS011;38650;44.536;18.664;2023-03-31T11:54:54;1.88;;;0.77;;
52764;SDS011;38650;44.536;18.664;2023-03-31T11:57:32;1.38;;;0.90;;
52764;SDS011;38650;44.536;18.664;2023-03-31T12:00:15;2.13;;;0.90;;
52764;SDS011;38650;44.536;18.664;2023-03-31T12:02:51;1.27;;;0.80;;
52764;SDS011;38650;44.536;18.664;2023-03-31T12:05:23;1.77;;;0.70;;
52764;SDS011;38650;44.536;18.664;2023-03-31T12:07:57;1.08;;;0.90;;
52764;SDS011;38650;44.536;18.664;2023-03-31T12:13:28;1.40;;;0.80;;
52764;SDS011;38650;44.536;18.664;2023-03-31T12:19:01;1.80;;;0.70;;
52764;SDS011;38650;44.536;18.664;2023-03-31T12:21:37;0.90;;;0.80;;
52764;SDS011;38650;44.536;18.664;2023-03-31T12:24:05;1.08;;;0.80;;
52764;SDS011;38650;44.536;18.664;2023-03-31T12:29:24;0.77;;;0.70;;
52764;SDS011;38650;44.536;18.664;2023-03-31T12:31:57;1.35;;;0.95;;
52764;SDS011;38650;44.536;18.664;2023-03-31T12:34:27;1.65;;;1.08;;
52764;SDS011;38650;44.536;18.664;2023-03-31T12:45:01;0.88;;;0.88;;
52764;SDS011;38650;44.536;18.664;2023-03-31T12:52:46;1.98;;;0.85;;
52764;SDS011;38650;44.536;18.664;2023-03-31T12:55:30;0.90;;;0.60;;
52764;SDS011;38650;44.536;18.664;2023-03-31T13:06:11;2.13;;;1.17;;
52764;SDS011;38650;44.536;18.664;2023-03-31T13:08:59;1.75;;;1.23;;
52764;SDS011;38650;44.536;18.664;2023-03-31T13:14:02;1.63;;;1.38;;
52764;SDS011;38650;44.536;18.664;2023-03-31T13:16:48;2.35;;;1.40;;
52764;SDS011;38650;44.536;18.664;2023-03-31T13:19:29;1.98;;;1.13;;
52764;SDS011;38650;44.536;18.664;2023-03-31T13:22:03;2.30;;;1.63;;
52764;SDS011;38650;44.536;18.664;2023-03-31T13:24:30;2.03;;;1.83;;
52764;SDS011;38650;44.536;18.664;2023-03-31T13:26:58;4.32;;;2.30;;
52764;SDS011;38650;44.536;18.664;2023-03-31T13:29:46;2.45;;;1.10;;
52764;SDS011;38650;44.536;18.664;2023-03-31T13:32:20;1.50;;;0.93;;
52764;SDS011;38650;44.536;18.664;2023-03-31T13:43:06;1.30;;;0.65;;
52764;SDS011;38650;44.536;18.664;2023-03-31T13:46:22;0.77;;;0.70;;
52764;SDS011;38650;44.536;18.664;2023-03-31T14:08:04;1.27;;;0.90;;
52764;SDS011;38650;44.536;18.664;2023-03-31T14:10:49;1.73;;;0.98;;
52764;SDS011;38650;44.536;18.664;2023-03-31T14:13:16;3.40;;;0.80;;
52764;SDS011;38650;44.536;18.664;2023-03-31T14:15:54;1.63;;;1.05;;
52764;SDS011;38650;44.536;18.664;2023-03-31T14:18:26;2.67;;;0.93;;
52764;SDS011;38650;44.536;18.664;2023-03-31T14:23:41;1.08;;;0.82;;
52764;SDS011;38650;44.536;18.664;2023-03-31T14:29:30;2.08;;;1.00;;
52764;SDS011;38650;44.536;18.664;2023-03-31T14:37:51;1.95;;;1.13;;
52764;SDS011;38650;44.536;18.664;2023-03-31T14:40:18;1.33;;;0.90;;
52764;SDS011;38650;44.536;18.664;2023-03-31T14:42:44;2.53;;;1.00;;
52764;SDS011;38650;44.536;18.664;2023-03-31T14:45:18;2.60;;;1.00;;
52764;SDS011;38650;44.536;18.664;2023-03-31T14:50:35;2.10;;;1.10;;
52764;SDS011;38650;44.536;18.664;2023-03-31T14:53:01;1.83;;;0.82;;
52764;SDS011;38650;44.536;18.664;2023-03-31T14:55:29;1.65;;;1.00;;
52764;SDS011;38650;44.536;18.664;2023-03-31T14:57:57;2.00;;;0.80;;
52764;SDS011;38650;44.536;18.664;2023-03-31T15:00:29;2.33;;;0.77;;
52764;SDS011;38650;44.536;18.664;2023-03-31T15:02:57;1.90;;;1.00;;
52764;SDS011;38650;44.536;18.664;2023-03-31T15:05:31;1.17;;;1.00;;
52764;SDS011;38650;44.536;18.664;2023-03-31T15:08:10;1.70;;;1.08;;
52764;SDS011;38650;44.536;18.664;2023-03-31T15:10:51;2.35;;;0.98;;
52764;SDS011;38650;44.536;18.664;2023-03-31T15:15:57;1.73;;;0.80;;
52764;SDS011;38650;44.536;18.664;2023-03-31T15:18:24;1.17;;;0.93;;
52764;SDS011;38650;44.536;18.664;2023-03-31T15:20:51;1.45;;;1.00;;
52764;SDS011;38650;44.536;18.664;2023-03-31T15:23:21;2.58;;;1.23;;
52764;SDS011;38650;44.536;18.664;2023-03-31T15:26:26;2.20;;;1.10;;
52764;SDS011;38650;44.536;18.664;2023-03-31T15:31:16;1.10;;;1.00;;
52764;SDS011;38650;44.536;18.664;2023-03-31T15:33:42;3.58;;;1.17;;
52764;SDS011;38650;44.536;18.664;2023-03-31T15:36:11;2.25;;;1.08;;
52764;SDS011;38650;44.536;18.664;2023-03-31T15:38:38;1.48;;;1.10;;
52764;SDS011;38650;44.536;18.664;2023-03-31T15:41:10;1.67;;;1.08;;
52764;SDS011;38650;44.536;18.664;2023-03-31T15:46:08;1.70;;;1.10;;
52764;SDS011;38650;44.536;18.664;2023-03-31T15:48:36;1.40;;;1.20;;
52764;SDS011;38650;44.536;18.664;2023-03-31T15:53:45;2.47;;;1.50;;
52764;SDS011;38650;44.536;18.664;2023-03-31T15:58:58;2.28;;;1.83;;
52764;SDS011;38650;44.536;18.664;2023-03-31T16:01:27;2.55;;;2.20;;
52764;SDS011;38650;44.536;18.664;2023-03-31T16:04:10;2.88;;;2.20;;
52764;SDS011;38650;44.536;18.664;2023-03-31T16:06:51;5.15;;;4.32;;
52764;SDS011;38650;44.536;18.664;2023-03-31T16:11:53;11.40;;;9.10;;
52764;SDS011;38650;44.536;18.664;2023-03-31T16:16:51;7.70;;;6.90;;
52764;SDS011;38650;44.536;18.664;2023-03-31T16:19:22;5.30;;;4.35;;
52764;SDS011;38650;44.536;18.664;2023-03-31T16:21:52;5.03;;;3.95;;
52764;SDS011;38650;44.536;18.664;2023-03-31T16:24:27;5.05;;;4.55;;
52764;SDS011;38650;44.536;18.664;2023-03-31T16:27:02;5.78;;;5.13;;
52764;SDS011;38650;44.536;18.664;2023-03-31T16:29:31;6.03;;;5.43;;
52764;SDS011;38650;44.536;18.664;2023-03-31T16:34:56;4.85;;;4.35;;
52764;SDS011;38650;44.536;18.664;2023-03-31T16:37:26;6.65;;;5.28;;
52764;SDS011;38650;44.536;18.664;2023-03-31T16:39:51;5.38;;;4.60;;
52764;SDS011;38650;44.536;18.664;2023-03-31T16:42:18;6.95;;;6.25;;
52764;SDS011;38650;44.536;18.664;2023-03-31T16:44:44;10.98;;;9.95;;
52764;SDS011;38650;44.536;18.664;2023-03-31T16:47:10;20.25;;;18.25;;
52764;SDS011;38650;44.536;18.664;2023-03-31T16:49:37;22.02;;;16.92;;
52764;SDS011;38650;44.536;18.664;2023-03-31T16:52:03;29.23;;;14.95;;
52764;SDS011;38650;44.536;18.664;2023-03-31T16:54:29;21.83;;;14.25;;
52764;SDS011;38650;44.536;18.664;2023-03-31T16:56:55;12.52;;;11.32;;
52764;SDS011;38650;44.536;18.664;2023-03-31T16:59:21;11.95;;;10.75;;
52764;SDS011;38650;44.536;18.664;2023-03-31T17:01:48;18.67;;;12.35;;
52764;SDS011;38650;44.536;18.664;2023-03-31T17:04:14;12.30;;;10.90;;
52764;SDS011;38650;44.536;18.664;2023-03-31T17:06:40;10.13;;;9.05;;
52764;SDS011;38650;44.536;18.664;2023-03-31T17:09:06;8.18;;;7.38;;
52764;SDS011;38650;44.536;18.664;2023-03-31T17:11:32;8.82;;;7.93;;
52764;SDS011;38650;44.536;18.664;2023-03-31T17:13:59;8.52;;;7.68;;
52764;SDS011;38650;44.536;18.664;2023-03-31T17:16:26;7.50;;;6.80;;
52764;SDS011;38650;44.536;18.664;2023-03-31T17:18:52;7.82;;;7.03;;
52764;SDS011;38650;44.536;18.664;2023-03-31T17:21:18;32.10;;;26.23;;
52764;SDS011;38650;44.536;18.664;2023-03-31T17:23:44;37.10;;;31.58;;
52764;SDS011;38650;44.536;18.664;2023-03-31T17:26:10;28.90;;;24.98;;
52764;SDS011;38650;44.536;18.664;2023-03-31T17:28:37;21.65;;;19.38;;
52764;SDS011;38650;44.536;18.664;2023-03-31T17:31:13;35.03;;;29.60;;
52764;SDS011;38650;44.536;18.664;2023-03-31T17:33:43;34.67;;;29.33;;
52764;SDS011;38650;44.536;18.664;2023-03-31T17:36:09;37.97;;;31.48;;
52764;SDS011;38650;44.536;18.664;2023-03-31T17:38:36;25.67;;;21.17;;
52764;SDS011;38650;44.536;18.664;2023-03-31T17:41:06;44.83;;;35.92;;
52764;SDS011;38650;44.536;18.664;2023-03-31T17:43:34;29.52;;;26.33;;
52764;SDS011;38650;44.536;18.664;2023-03-31T17:46:04;34.97;;;29.05;;
52764;SDS011;38650;44.536;18.664;2023-03-31T17:48:32;73.90;;;62.13;;
52764;SDS011;38650;44.536;18.664;2023-03-31T17:51:02;83.90;;;70.22;;
52764;SDS011;38650;44.536;18.664;2023-03-31T17:53:29;60.30;;;54.00;;
52764;SDS011;38650;44.536;18.664;2023-03-31T17:55:55;71.20;;;63.95;;
52764;SDS011;38650;44.536;18.664;2023-03-31T17:58:21;55.97;;;50.22;;
52764;SDS011;38650;44.536;18.664;2023-03-31T18:00:47;57.95;;;52.10;;
52764;SDS011;38650;44.536;18.664;2023-03-31T18:03:13;57.72;;;51.65;;